Time;durP1;ratioP1;P1;durP2;ratioP2;P2;SDS_P1;SDS_P2;PMS_P1;PMS_P2;Temp;Humidity;BMP_temperature;BMP_pressure;BME280_temperature;BME280_humidity;BME280_pressure;Samples;Min_cycle;Max_cycle;Signal;HPM_P1;HPM_P2
2020/12/17 00:01:58;;;;;;;34.00;15.40;;;6.60;99.90;;;;;;4893690;28;20164;-80
2020/12/17 00:04:24;;;;;;;36.53;15.07;;;6.60;99.90;;;;;;4894146;28;20441;-81
2020/12/17 00:06:46;;;;;;;38.05;15.93;;;6.60;99.90;;;;;;4893865;28;20086;-80
2020/12/17 00:09:12;;;;;;;42.15;16.10;;;6.60;99.90;;;;;;4895174;28;20141;-81
2020/12/17 00:11:35;;;;;;;42.95;15.32;;;6.60;99.90;;;;;;4895763;28;20095;-82
2020/12/17 00:13:59;;;;;;;47.05;16.85;;;6.60;99.90;;;;;;4898047;28;20114;-81
2020/12/17 00:16:22;;;;;;;35.03;14.65;;;6.60;99.90;;;;;;4897052;28;20111;-81
2020/12/17 00:18:48;;;;;;;43.35;17.67;;;6.60;99.90;;;;;;4891421;28;20563;-81
2020/12/17 00:21:14;;;;;;;40.83;16.52;;;6.60;99.90;;;;;;4892756;28;20087;-81
2020/12/17 00:23:38;;;;;;;;;;;6.60;99.90;;;;;;4893152;28;20098;-81
2020/12/17 00:26:09;;;;;;;42.80;16.58;;;6.70;99.90;;;;;;4897238;28;20086;-81
2020/12/17 00:28:34;;;;;;;48.95;17.98;;;6.60;99.90;;;;;;4894750;28;20088;-81
2020/12/17 00:30:57;;;;;;;42.50;16.63;;;6.70;99.90;;;;;;4893112;28;20090;-81
2020/12/17 00:33:20;;;;;;;41.10;15.90;;;6.70;99.90;;;;;;4893240;28;20129;-81
2020/12/17 00:35:44;;;;;;;44.13;17.75;;;6.70;99.90;;;;;;4893124;28;20087;-81
2020/12/17 00:38:15;;;;;;;42.83;17.93;;;6.70;99.90;;;;;;4893515;28;20564;-81
2020/12/17 00:40:47;;;;;;;48.70;19.08;;;6.70;99.90;;;;;;4896322;28;20592;-81
2020/12/17 00:43:11;;;;;;;48.75;18.17;;;6.70;99.90;;;;;;4892526;28;20450;-81
2020/12/17 00:45:33;;;;;;;46.40;19.17;;;6.70;99.90;;;;;;4893507;28;20180;-81
2020/12/17 00:47:56;;;;;;;52.47;17.83;;;6.70;99.90;;;;;;4895744;28;20091;-81
2020/12/17 00:50:19;;;;;;;63.53;22.00;;;6.70;99.90;;;;;;4896195;28;20093;-81
2020/12/17 00:52:43;;;;;;;52.03;19.60;;;6.70;99.90;;;;;;4893235;28;20092;-80
2020/12/17 00:55:10;;;;;;;50.42;18.60;;;6.90;99.90;;;;;;4894996;28;20178;-82
2020/12/17 00:57:33;;;;;;;46.13;17.85;;;6.70;99.90;;;;;;4893741;28;20079;-81
2020/12/17 00:59:56;;;;;;;53.13;18.73;;;6.60;99.90;;;;;;4896725;28;20171;-81
2020/12/17 01:02:22;;;;;;;54.08;19.05;;;6.50;99.90;;;;;;4897609;28;20514;-81
2020/12/17 01:04:45;;;;;;;55.30;17.98;;;6.40;99.90;;;;;;4895186;28;20158;-82
2020/12/17 01:07:07;;;;;;;48.88;18.25;;;6.40;99.90;;;;;;4893762;28;20122;-81
2020/12/17 01:09:31;;;;;;;49.30;18.15;;;6.30;99.90;;;;;;4894603;28;20076;-81
2020/12/17 01:11:54;;;;;;;53.78;18.38;;;6.30;99.90;;;;;;4899320;28;20090;-82
2020/12/17 01:14:17;;;;;;;56.45;19.17;;;6.30;99.90;;;;;;4897433;28;20553;-82
2020/12/17 01:16:41;;;;;;;51.03;18.40;;;6.30;99.90;;;;;;4889870;28;20091;-82
2020/12/17 01:19:05;;;;;;;51.85;19.10;;;6.30;99.90;;;;;;4893584;28;20102;-81
2020/12/17 01:21:32;;;;;;;60.15;20.75;;;6.20;99.90;;;;;;4889958;28;20541;-81
2020/12/17 01:23:57;;;;;;;52.42;19.45;;;6.20;99.90;;;;;;4895048;28;20484;-81
2020/12/17 01:26:20;;;;;;;61.55;21.27;;;6.10;99.90;;;;;;4895075;28;20707;-81
2020/12/17 01:28:46;;;;;;;59.55;20.90;;;;;;;;;;4893676;28;20090;-82
2020/12/17 01:31:10;;;;;;;59.20;20.48;;;6.10;99.90;;;;;;4891288;28;20095;-81
2020/12/17 01:33:33;;;;;;;64.63;21.90;;;6.10;99.90;;;;;;4892210;28;20532;-81
2020/12/17 01:35:56;;;;;;;59.97;20.23;;;6.10;99.90;;;;;;4892671;28;20110;-82
2020/12/17 01:38:19;;;;;;;59.80;21.80;;;6.20;99.90;;;;;;4894969;28;20087;-81
2020/12/17 01:40:46;;;;;;;79.38;21.02;;;6.20;99.90;;;;;;4892442;28;20170;-81
2020/12/17 01:43:11;;;;;;;64.35;20.77;;;6.20;99.90;;;;;;4893607;28;20095;-81
2020/12/17 01:45:35;;;;;;;60.60;22.27;;;6.20;99.90;;;;;;4884171;28;20094;-81
2020/12/17 01:48:02;;;;;;;66.75;21.05;;;6.30;99.90;;;;;;4892916;28;20089;-82
2020/12/17 01:50:26;;;;;;;66.57;22.98;;;6.40;99.90;;;;;;4896520;28;20083;-81
2020/12/17 01:52:53;;;;;;;75.30;24.20;;;6.40;99.90;;;;;;4894220;28;20166;-82
2020/12/17 01:55:18;;;;;;;74.55;23.20;;;6.50;99.90;;;;;;4893834;28;20597;-81
2020/12/17 01:57:45;;;;;;;73.50;23.52;;;6.50;99.90;;;;;;4892745;28;20560;-81
2020/12/17 02:00:13;;;;;;;70.20;22.52;;;6.60;99.90;;;;;;4896105;28;20098;-82
2020/12/17 02:02:37;;;;;;;78.25;24.08;;;6.60;99.90;;;;;;4896639;28;20136;-82
2020/12/17 02:05:01;;;;;;;76.15;24.42;;;6.60;99.90;;;;;;4891231;28;20483;-81
2020/12/17 02:07:25;;;;;;;70.97;23.48;;;6.70;99.90;;;;;;4893485;28;20167;-81
2020/12/17 02:09:50;;;;;;;72.28;22.88;;;6.70;99.90;;;;;;4889248;28;20438;-81
2020/12/17 02:12:17;;;;;;;73.50;23.58;;;6.60;99.90;;;;;;4896381;28;20097;-81
2020/12/17 02:14:44;;;;;;;77.60;24.17;;;6.70;99.90;;;;;;4892278;28;20096;-80
2020/12/17 02:17:07;;;;;;;75.20;23.63;;;6.70;99.90;;;;;;4891378;28;20182;-81
2020/12/17 02:19:31;;;;;;;70.88;24.52;;;6.70;99.90;;;;;;4890395;28;21071;-81
2020/12/17 02:21:57;;;;;;;82.68;25.42;;;6.70;99.90;;;;;;4895164;28;20135;-81
2020/12/17 02:24:24;;;;;;;70.55;22.63;;;6.70;99.90;;;;;;4867535;28;20087;-81
2020/12/17 02:26:48;;;;;;;72.40;24.35;;;6.70;99.90;;;;;;4891867;28;20091;-81
2020/12/17 02:29:17;;;;;;;80.15;24.80;;;6.70;99.90;;;;;;4893258;28;20182;-81
2020/12/17 02:31:40;;;;;;;68.68;23.02;;;6.70;99.90;;;;;;4892150;28;20115;-81
2020/12/17 02:34:05;;;;;;;68.88;23.30;;;6.70;99.90;;;;;;4891766;28;20095;-81
2020/12/17 02:36:32;;;;;;;73.13;24.23;;;6.70;99.90;;;;;;4892855;28;20091;-81
2020/12/17 02:38:55;;;;;;;75.82;24.95;;;6.70;99.90;;;;;;4884934;28;20091;-82
2020/12/17 02:41:20;;;;;;;69.88;23.35;;;6.70;99.90;;;;;;4883226;28;20178;-81
2020/12/17 02:43:44;;;;;;;76.97;24.90;;;6.70;99.90;;;;;;4891846;28;20109;-82
2020/12/17 02:46:12;;;;;;;63.25;22.60;;;6.70;99.90;;;;;;4891824;28;20091;-81
2020/12/17 02:48:35;;;;;;;78.07;25.95;;;6.70;99.90;;;;;;4884991;28;23051;-81
2020/12/17 02:51:01;;;;;;;65.15;23.50;;;6.70;99.90;;;;;;4906778;28;20178;-81
2020/12/17 02:53:24;;;;;;;70.20;22.73;;;6.70;99.90;;;;;;4891320;28;20106;-81
2020/12/17 02:55:53;;;;;;;64.75;22.42;;;6.70;99.90;;;;;;4891066;28;20484;-81
2020/12/17 02:58:19;;;;;;;59.38;22.45;;;6.60;99.90;;;;;;4893240;28;20506;-81
2020/12/17 03:00:47;;;;;;;77.28;23.73;;;6.70;99.90;;;;;;4893781;28;20174;-81
2020/12/17 03:03:11;;;;;;;76.18;21.48;;;6.70;99.90;;;;;;4891490;28;20090;-82
2020/12/17 03:05:34;;;;;;;68.55;24.42;;;6.60;99.90;;;;;;4891878;28;20087;-82
2020/12/17 03:07:57;;;;;;;70.35;23.33;;;6.60;99.90;;;;;;4892414;28;20103;-81
2020/12/17 03:10:23;;;;;;;73.00;22.25;;;6.60;99.90;;;;;;4892037;28;20211;-81
2020/12/17 03:12:46;;;;;;;67.55;22.48;;;6.50;99.90;;;;;;4893246;28;20086;-81
2020/12/17 03:15:10;;;;;;;68.35;22.60;;;6.60;99.90;;;;;;4889407;28;20105;-81
2020/12/17 03:17:35;;;;;;;62.85;23.20;;;6.60;99.90;;;;;;4890845;28;20525;-81
2020/12/17 03:19:58;;;;;;;66.93;22.98;;;6.60;99.90;;;;;;4890246;28;20079;-81
2020/12/17 03:22:22;;;;;;;65.13;23.60;;;6.50;99.90;;;;;;4892707;28;20170;-81
2020/12/17 03:24:45;;;;;;;62.08;21.75;;;6.60;99.90;;;;;;4896746;28;20169;-81
2020/12/17 03:27:07;;;;;;;67.80;22.63;;;6.50;99.90;;;;;;4883546;28;20606;-81
2020/12/17 03:29:33;;;;;;;66.80;23.73;;;6.50;99.90;;;;;;4904998;28;20524;-81
2020/12/17 03:31:57;;;;;;;66.03;22.58;;;6.50;99.90;;;;;;4881208;28;20605;-81
2020/12/17 03:34:20;;;;;;;72.38;24.48;;;6.50;99.90;;;;;;4883419;28;20102;-81
2020/12/17 03:36:44;;;;;;;65.28;22.85;;;6.50;99.90;;;;;;4892542;28;20095;-80
2020/12/17 03:39:07;;;;;;;67.73;22.40;;;6.40;99.90;;;;;;4891186;28;20088;-80
2020/12/17 03:41:30;;;;;;;61.03;22.48;;;6.50;99.90;;;;;;4892044;28;20110;-81
2020/12/17 03:43:53;;;;;;;68.00;22.70;;;;;;;;;;4890230;28;20111;-82
2020/12/17 03:46:18;;;;;;;70.00;22.05;;;6.40;99.90;;;;;;4894970;28;20555;-81
2020/12/17 03:48:49;;;;;;;65.55;22.25;;;6.40;99.90;;;;;;4885538;28;20140;-81
2020/12/17 03:51:14;;;;;;;70.18;22.33;;;6.50;99.90;;;;;;4901881;28;20110;-81
2020/12/17 03:53:37;;;;;;;74.93;23.58;;;6.40;99.90;;;;;;4885284;28;20099;-81
2020/12/17 03:56:00;;;;;;;68.93;23.05;;;6.40;99.90;;;;;;4892197;28;20091;-81
2020/12/17 03:58:23;;;;;;;67.68;21.38;;;6.40;99.90;;;;;;4899185;28;20105;-81
2020/12/17 04:00:46;;;;;;;72.43;23.73;;;6.40;99.90;;;;;;4893975;28;20554;-81
2020/12/17 04:03:13;;;;;;;69.53;22.42;;;6.40;99.90;;;;;;4891855;28;20443;-81
2020/12/17 04:05:39;;;;;;;67.90;22.35;;;6.40;99.90;;;;;;4891812;28;20118;-80
2020/12/17 04:08:03;;;;;;;64.35;22.45;;;6.40;99.90;;;;;;4899446;28;20173;-80
2020/12/17 04:10:26;;;;;;;75.78;23.42;;;6.40;99.90;;;;;;4897514;28;20111;-80
2020/12/17 04:12:49;;;;;;;69.03;21.67;;;6.40;99.90;;;;;;4895975;28;20091;-81
2020/12/17 04:15:17;;;;;;;62.13;22.00;;;6.40;99.90;;;;;;4881642;28;20537;-80
2020/12/17 04:17:40;;;;;;;66.85;20.85;;;6.40;99.90;;;;;;4899646;28;20099;-81
2020/12/17 04:20:08;;;;;;;61.63;21.77;;;6.30;99.90;;;;;;4894303;28;20410;-81
2020/12/17 04:22:35;;;;;;;71.03;20.85;;;6.30;99.90;;;;;;4897215;28;20083;-81
2020/12/17 04:24:58;;;;;;;69.72;21.98;;;6.30;99.90;;;;;;4891452;28;20091;-81
2020/12/17 04:27:23;;;;;;;65.32;21.42;;;6.20;99.90;;;;;;4894819;28;20099;-80
2020/12/17 04:29:49;;;;;;;69.38;20.33;;;6.20;99.90;;;;;;4880918;28;20458;-80
2020/12/17 04:32:12;;;;;;;72.45;22.15;;;6.10;99.90;;;;;;4890361;28;20127;-81
2020/12/17 04:34:39;;;;;;;58.10;18.83;;;6.10;99.90;;;;;;4895610;28;20102;-80
2020/12/17 04:37:06;;;;;;;56.75;20.92;;;6.10;99.90;;;;;;4896813;28;20168;-80
2020/12/17 04:39:30;;;;;;;57.15;19.45;;;6.20;99.90;;;;;;4892647;28;20111;-80
2020/12/17 04:41:53;;;;;;;59.90;21.50;;;6.20;99.90;;;;;;4894127;28;20090;-81
2020/12/17 04:44:20;;;;;;;63.97;21.48;;;6.20;99.90;;;;;;4895727;28;20182;-81
2020/12/17 04:46:49;;;;;;;54.67;20.55;;;6.30;99.90;;;;;;4893410;28;20822;-81
2020/12/17 04:49:20;;;;;;;69.28;22.02;;;6.30;99.90;;;;;;4893320;28;20091;-81
2020/12/17 04:51:44;;;;;;;65.93;22.80;;;6.30;99.90;;;;;;4892318;28;20083;-81
2020/12/17 04:54:12;;;;;;;65.22;21.63;;;6.30;99.90;;;;;;4884837;28;20174;-81
2020/12/17 04:56:42;;;;;;;63.03;22.27;;;6.30;99.90;;;;;;4896657;28;20081;-79
2020/12/17 04:59:08;;;;;;;65.38;21.60;;;6.30;99.90;;;;;;4886053;28;20534;-81
2020/12/17 05:01:35;;;;;;;75.45;22.77;;;6.30;99.90;;;;;;4895877;28;20094;-81
2020/12/17 05:04:01;;;;;;;69.68;21.00;;;6.30;99.90;;;;;;4891494;28;20094;-81
2020/12/17 05:06:25;;;;;;;61.92;21.25;;;6.20;99.90;;;;;;4891027;28;20095;-81
2020/12/17 05:08:48;;;;;;;74.55;22.40;;;6.10;99.90;;;;;;4894665;28;20525;-80
2020/12/17 05:11:14;;;;;;;65.45;22.45;;;6.10;99.90;;;;;;4894542;28;20103;-81
2020/12/17 05:13:38;;;;;;;59.35;19.70;;;;;;;;;;4895054;28;20095;-81
2020/12/17 05:16:01;;;;;;;71.82;21.83;;;6.00;99.90;;;;;;4893336;28;20405;-81
2020/12/17 05:18:26;;;;;;;73.10;20.95;;;5.90;99.90;;;;;;4894700;28;20129;-80
2020/12/17 05:20:54;;;;;;;69.93;22.27;;;5.90;99.90;;;;;;4896731;28;20079;-81
2020/12/17 05:23:17;;;;;;;65.50;22.50;;;5.80;99.90;;;;;;4892622;28;20199;-81
2020/12/17 05:25:41;;;;;;;60.33;21.35;;;5.80;99.90;;;;;;4896399;28;23240;-81
2020/12/17 05:28:12;;;;;;;69.15;23.52;;;5.80;99.90;;;;;;4892563;28;22571;-81
2020/12/17 05:30:38;;;;;;;65.97;21.88;;;5.80;99.90;;;;;;4893418;28;20107;-81
2020/12/17 05:33:04;;;;;;;73.38;24.45;;;5.70;99.90;;;;;;4884463;28;20533;-81
2020/12/17 05:35:39;;;;;;;80.35;23.98;;;5.70;99.90;;;;;;4896651;28;20197;-81
2020/12/17 05:38:04;;;;;;;70.78;22.85;;;5.70;99.90;;;;;;4891872;28;20090;-81
2020/12/17 05:40:29;;;;;;;77.32;23.95;;;;;;;;;;4891515;28;20094;-81
2020/12/17 05:42:55;;;;;;;70.97;22.88;;;5.60;99.90;;;;;;4892117;28;20426;-81
2020/12/17 05:45:26;;;;;;;76.45;24.80;;;5.50;99.90;;;;;;4895582;28;20166;-81
2020/12/17 05:48:08;;;;;;;79.38;24.70;;;5.50;99.90;;;;;;4893170;28;20133;-81
2020/12/17 05:50:38;;;;;;;65.88;23.75;;;5.50;99.90;;;;;;4891283;28;20091;-81
2020/12/17 05:53:06;;;;;;;79.70;25.58;;;5.50;99.90;;;;;;4878086;28;20112;-80
2020/12/17 05:55:31;;;;;;;69.40;23.75;;;5.50;99.90;;;;;;4899836;28;20111;-81
2020/12/17 05:57:57;;;;;;;76.25;23.50;;;5.50;99.90;;;;;;4896226;28;20466;-81
2020/12/17 06:00:21;;;;;;;85.07;25.48;;;5.50;99.90;;;;;;4891852;28;20084;-81
2020/12/17 06:02:44;;;;;;;81.95;25.95;;;5.50;99.90;;;;;;4894054;28;20102;-81
2020/12/17 06:05:16;;;;;;;83.05;25.63;;;5.50;99.90;;;;;;4891157;28;20087;-81
2020/12/17 06:07:50;;;;;;;74.60;24.45;;;5.50;99.90;;;;;;4889300;28;20160;-80
2020/12/17 06:10:21;;;;;;;73.20;22.67;;;5.40;99.90;;;;;;4891867;28;20171;-81
2020/12/17 06:12:49;;;;;;;86.95;26.60;;;5.30;99.90;;;;;;4893591;28;20088;-81
2020/12/17 06:15:19;;;;;;;82.28;24.13;;;5.30;99.90;;;;;;4892390;28;20217;-80
2020/12/17 06:17:48;;;;;;;78.65;24.35;;;5.20;99.90;;;;;;4887213;28;20116;-80
2020/12/17 06:20:13;;;;;;;93.90;25.98;;;5.20;99.90;;;;;;4900128;28;20091;-81
2020/12/17 06:22:38;;;;;;;82.37;23.80;;;5.20;99.90;;;;;;4895263;28;20179;-81
2020/12/17 06:25:04;;;;;;;86.85;24.35;;;5.20;99.90;;;;;;4886195;28;20431;-80
2020/12/17 06:27:41;;;;;;;81.75;26.92;;;5.20;99.90;;;;;;4883098;28;20560;-80
2020/12/17 06:30:10;;;;;;;79.57;24.90;;;5.30;99.90;;;;;;4882831;28;20090;-81
2020/12/17 06:32:34;;;;;;;94.30;26.98;;;5.20;99.90;;;;;;4892552;28;20110;-81
2020/12/17 06:35:00;;;;;;;89.28;27.48;;;5.30;99.90;;;;;;4890175;28;20165;-80
2020/12/17 06:37:24;;;;;;;97.07;28.15;;;5.20;99.90;;;;;;4892627;28;20087;-81
2020/12/17 06:39:49;;;;;;;77.63;24.95;;;5.30;99.90;;;;;;4895769;28;20095;-81
2020/12/17 06:42:31;;;;;;;83.97;27.50;;;5.20;99.90;;;;;;4894235;28;20087;-81
2020/12/17 06:44:55;;;;;;;83.78;27.00;;;5.30;99.90;;;;;;4892494;28;20079;-80
2020/12/17 06:47:30;;;;;;;81.45;26.90;;;5.30;99.90;;;;;;4863404;28;20229;-80
2020/12/17 06:49:54;;;;;;;82.43;27.42;;;5.30;99.90;;;;;;4893352;28;20091;-81
2020/12/17 06:52:17;;;;;;;82.27;26.20;;;5.30;99.90;;;;;;4892772;28;20086;-81
2020/12/17 06:54:44;;;;;;;82.75;25.33;;;5.40;99.90;;;;;;4900901;28;21295;-81
2020/12/17 06:57:11;;;;;;;78.85;25.60;;;5.30;99.90;;;;;;4892650;28;20170;-81
2020/12/17 06:59:35;;;;;;;76.97;25.90;;;5.30;99.90;;;;;;4887802;28;20525;-81
2020/12/17 07:01:59;;;;;;;77.82;25.52;;;5.30;99.90;;;;;;4891451;28;20453;-81
2020/12/17 07:04:44;;;;;;;77.35;24.42;;;5.30;99.90;;;;;;4893551;28;20134;-81
2020/12/17 07:07:16;;;;;;;71.88;23.10;;;5.30;99.90;;;;;;4883586;28;20525;-82
2020/12/17 07:09:42;;;;;;;83.55;24.90;;;5.30;99.90;;;;;;4889819;28;20099;-81
2020/12/17 07:12:07;;;;;;;79.43;23.83;;;5.30;99.90;;;;;;4890183;28;20099;-81
2020/12/17 07:14:39;;;;;;;76.03;24.35;;;5.30;99.90;;;;;;4893940;28;20228;-81
2020/12/17 07:17:09;;;;;;;83.30;23.88;;;5.30;99.90;;;;;;4890129;28;20549;-80
2020/12/17 07:19:40;;;;;;;71.97;25.08;;;5.30;99.90;;;;;;4892140;28;20498;-80
2020/12/17 07:22:05;;;;;;;71.45;21.60;;;5.30;99.90;;;;;;4880124;28;20153;-81
2020/12/17 07:24:31;;;;;;;77.35;25.23;;;5.40;99.90;;;;;;4890661;28;20099;-81
2020/12/17 07:27:00;;;;;;;73.40;23.48;;;5.40;99.90;;;;;;4892506;28;20091;-80
2020/12/17 07:29:41;;;;;;;75.82;23.17;;;5.40;99.90;;;;;;4891217;28;20549;-81
2020/12/17 07:32:23;;;;;;;70.88;24.67;;;5.40;99.90;;;;;;4892560;28;20119;-80
2020/12/17 07:34:48;;;;;;;76.38;24.05;;;5.40;99.90;;;;;;4881172;28;20180;-81
2020/12/17 07:37:36;;;;;;;81.03;23.52;;;5.50;99.90;;;;;;4891028;28;20622;-81
2020/12/17 07:40:02;;;;;;;66.85;22.33;;;5.50;99.90;;;;;;4893047;28;20114;-80
2020/12/17 07:42:28;;;;;;;76.13;23.13;;;5.50;99.90;;;;;;4895334;28;20186;-81
2020/12/17 07:44:51;;;;;;;71.03;22.27;;;5.50;99.90;;;;;;4895160;28;20115;-81
2020/12/17 07:47:25;;;;;;;78.47;24.15;;;5.40;99.90;;;;;;4894671;28;20494;-81
2020/12/17 07:49:48;;;;;;;61.15;22.35;;;5.50;99.90;;;;;;4895920;28;20105;-81
2020/12/17 07:52:29;;;;;;;74.30;23.33;;;5.50;99.90;;;;;;4895635;28;20087;-81
2020/12/17 07:54:52;;;;;;;70.28;22.40;;;5.50;99.90;;;;;;4895314;28;20094;-81
2020/12/17 07:57:15;;;;;;;66.75;22.67;;;5.50;99.90;;;;;;4895227;28;20083;-81
2020/12/17 07:59:42;;;;;;;68.90;22.55;;;5.50;99.90;;;;;;4896396;28;20541;-81
2020/12/17 08:02:08;;;;;;;68.40;21.02;;;5.50;99.90;;;;;;4891907;28;20119;-81
2020/12/17 08:04:33;;;;;;;56.35;21.50;;;5.50;99.90;;;;;;4895651;28;20087;-80
2020/12/17 08:06:56;;;;;;;61.08;21.40;;;5.40;99.90;;;;;;4892796;28;20086;-81
2020/12/17 08:09:23;;;;;;;64.05;20.85;;;5.40;99.90;;;;;;4892668;28;20576;-82
2020/12/17 08:11:57;;;;;;;67.28;22.35;;;5.40;99.90;;;;;;4892619;28;20445;-81
2020/12/17 08:14:23;;;;;;;71.50;24.02;;;5.50;99.90;;;;;;4895726;28;20140;-82
2020/12/17 08:16:48;;;;;;;71.60;20.65;;;5.50;99.90;;;;;;4895072;28;20453;-81
2020/12/17 08:19:20;;;;;;;56.58;20.20;;;5.50;99.90;;;;;;4894008;28;20170;-81
2020/12/17 08:21:48;;;;;;;63.05;21.33;;;5.50;99.90;;;;;;4891786;28;20550;-82
2020/12/17 08:24:15;;;;;;;62.33;19.48;;;5.50;99.90;;;;;;4891131;28;20182;-81
2020/12/17 08:26:38;;;;;;;57.25;20.52;;;5.50;99.90;;;;;;4885624;28;20289;-82
2020/12/17 08:29:03;;;;;;;63.15;20.30;;;5.50;99.90;;;;;;4886446;28;20461;-81
2020/12/17 08:31:28;;;;;;;68.00;22.17;;;5.40;99.90;;;;;;4893770;28;20496;-81
2020/12/17 08:33:58;;;;;;;66.82;21.27;;;5.40;99.90;;;;;;4894757;28;20094;-82
2020/12/17 08:36:23;;;;;;;56.80;19.85;;;5.50;99.90;;;;;;4893479;28;20728;-81
2020/12/17 08:39:02;;;;;;;56.05;19.48;;;5.50;99.90;;;;;;4895539;28;20166;-82
2020/12/17 08:41:31;;;;;;;63.50;19.73;;;5.50;99.90;;;;;;4894353;28;20137;-81
2020/12/17 08:43:57;;;;;;;58.15;20.30;;;5.50;99.90;;;;;;4891537;28;20513;-81
2020/12/17 08:46:25;;;;;;;62.60;19.13;;;5.50;99.90;;;;;;4892804;28;20095;-81
2020/12/17 08:48:50;;;;;;;60.40;19.60;;;;;;;;;;4892223;28;20476;-80
2020/12/17 08:51:18;;;;;;;62.42;19.42;;;5.60;99.90;;;;;;4900186;28;20083;-80
2020/12/17 08:53:43;;;;;;;57.17;20.20;;;5.60;99.90;;;;;;4894900;28;20092;-81
2020/12/17 08:56:13;;;;;;;56.72;19.10;;;5.60;99.90;;;;;;4893572;28;20186;-81
2020/12/17 08:58:49;;;;;;;55.67;19.80;;;5.60;99.90;;;;;;4883266;28;20107;-80
2020/12/17 09:01:22;;;;;;;54.83;18.05;;;5.70;99.90;;;;;;4892506;28;20495;-80
2020/12/17 09:03:50;;;;;;;57.88;18.65;;;5.70;99.90;;;;;;4894206;28;20079;-81
2020/12/17 09:06:15;;;;;;;59.22;18.70;;;5.60;99.90;;;;;;4895470;28;20534;-82
2020/12/17 09:08:38;;;;;;;54.47;18.65;;;5.60;99.90;;;;;;4891598;28;20087;-80
2020/12/17 09:11:02;;;;;;;52.17;17.77;;;5.60;99.90;;;;;;4895591;28;20099;-81
2020/12/17 09:13:27;;;;;;;63.20;19.42;;;5.50;99.90;;;;;;4896013;28;20095;-81
2020/12/17 09:16:01;;;;;;;55.90;17.83;;;5.50;99.90;;;;;;4893161;28;20091;-81
2020/12/17 09:18:27;;;;;;;52.85;17.90;;;5.50;99.90;;;;;;4894073;28;20087;-80
2020/12/17 09:21:06;;;;;;;52.03;17.85;;;5.50;99.90;;;;;;4881670;28;20173;-80
2020/12/17 09:23:30;;;;;;;45.83;16.33;;;5.50;99.90;;;;;;4882391;28;20094;-81
2020/12/17 09:25:53;;;;;;;56.72;17.42;;;5.50;99.90;;;;;;4881213;28;20114;-81
2020/12/17 09:28:23;;;;;;;51.40;18.63;;;5.50;99.90;;;;;;4893569;28;20427;-79
2020/12/17 09:30:47;;;;;;;47.97;16.30;;;5.50;99.90;;;;;;4873688;28;20080;-80
2020/12/17 09:33:11;;;;;;;53.03;18.02;;;5.50;99.90;;;;;;4890106;28;20099;-81
2020/12/17 09:35:36;;;;;;;46.67;17.23;;;5.50;99.90;;;;;;4887521;28;20093;-81
2020/12/17 09:38:01;;;;;;;41.70;16.13;;;5.50;99.90;;;;;;4873662;28;20090;-81
2020/12/17 09:40:30;;;;;;;44.47;16.17;;;5.60;99.90;;;;;;4877690;28;20091;-81
2020/12/17 09:43:04;;;;;;;42.30;15.88;;;5.60;99.90;;;;;;4879216;28;20113;-80
2020/12/17 09:45:37;;;;;;;45.85;16.52;;;5.60;99.90;;;;;;4867282;28;20140;-80
2020/12/17 09:48:00;;;;;;;53.20;17.35;;;5.60;99.90;;;;;;4876711;28;20122;-81
2020/12/17 09:50:28;;;;;;;40.00;15.35;;;5.60;99.90;;;;;;4867882;28;20148;-81
2020/12/17 09:52:51;;;;;;;45.83;16.33;;;5.60;99.90;;;;;;4879141;28;20113;-81
2020/12/17 09:55:14;;;;;;;46.75;15.45;;;5.60;99.90;;;;;;4879032;28;20091;-81
2020/12/17 09:57:47;;;;;;;48.20;17.48;;;5.60;99.90;;;;;;4885175;28;20087;-81
2020/12/17 10:00:15;;;;;;;41.00;15.25;;;5.60;99.90;;;;;;4884982;28;20584;-81
2020/12/17 10:02:38;;;;;;;36.83;14.30;;;5.70;99.90;;;;;;4873891;28;20843;-81
2020/12/17 10:05:05;;;;;;;39.72;14.63;;;5.70;99.90;;;;;;4881033;28;20099;-80
2020/12/17 10:07:32;;;;;;;40.55;15.88;;;5.70;99.90;;;;;;4870721;28;20115;-81
2020/12/17 10:10:04;;;;;;;46.30;15.50;;;5.70;99.90;;;;;;4869014;28;20160;-81
2020/12/17 10:12:34;;;;;;;39.33;14.48;;;5.70;99.90;;;;;;4834766;28;20099;-83
2020/12/17 10:15:19;;;;;;;42.75;14.93;;;5.70;99.90;;;;;;4841055;28;20094;-82
2020/12/17 10:17:51;;;;;;;38.00;14.77;;;5.70;99.90;;;;;;4836531;28;20091;-82
2020/12/17 10:20:22;;;;;;;39.13;14.48;;;5.70;99.90;;;;;;4831907;28;20174;-81
2020/12/17 10:22:51;;;;;;;35.13;13.75;;;5.80;99.90;;;;;;4847733;28;20099;-81
2020/12/17 10:25:23;;;;;;;37.35;14.25;;;5.80;99.90;;;;;;4884616;28;20517;-82
2020/12/17 10:27:47;;;;;;;35.22;14.25;;;5.90;99.90;;;;;;4865294;28;20094;-81
2020/12/17 10:30:12;;;;;;;37.92;14.88;;;5.90;99.90;;;;;;4866259;28;20187;-82
2020/12/17 10:32:37;;;;;;;;;;;5.90;99.90;;;;;;4884158;28;20096;-82
2020/12/17 10:35:07;;;;;;;38.78;13.32;;;6.00;99.90;;;;;;4883591;28;20058;-82
2020/12/17 10:37:31;;;;;;;32.67;14.20;;;6.00;99.90;;;;;;4884083;28;20091;-82
2020/12/17 10:39:57;;;;;;;37.05;13.98;;;6.10;99.90;;;;;;4897553;28;20185;-82
2020/12/17 10:42:22;;;;;;;36.25;13.70;;;6.10;99.90;;;;;;4894192;28;20086;-82
2020/12/17 10:44:46;;;;;;;40.93;13.93;;;6.10;99.90;;;;;;4889480;28;20537;-82
2020/12/17 10:47:10;;;;;;;39.83;13.95;;;6.10;99.90;;;;;;4890019;28;20494;-81
2020/12/17 10:49:39;;;;;;;28.55;13.07;;;6.20;99.90;;;;;;4893659;28;20148;-81
2020/12/17 10:52:04;;;;;;;34.95;14.35;;;6.20;99.90;;;;;;4890622;28;20110;-81
2020/12/17 10:54:28;;;;;;;32.33;13.07;;;6.20;99.90;;;;;;4891999;28;20099;-81
2020/12/17 10:56:53;;;;;;;34.70;13.38;;;6.20;99.90;;;;;;4891856;28;20094;-81
2020/12/17 10:59:16;;;;;;;33.65;13.43;;;6.30;99.90;;;;;;4889202;28;20506;-82
2020/12/17 11:01:39;;;;;;;33.80;13.38;;;6.30;99.90;;;;;;4895526;28;20137;-81
2020/12/17 11:04:05;;;;;;;32.65;13.15;;;6.40;99.90;;;;;;4864843;28;20087;-82
2020/12/17 11:06:28;;;;;;;32.28;13.13;;;6.50;99.90;;;;;;4890164;28;20095;-81
2020/12/17 11:08:52;;;;;;;33.38;12.57;;;6.50;99.90;;;;;;4890025;28;20605;-82
2020/12/17 11:11:18;;;;;;;31.38;11.75;;;6.50;99.90;;;;;;4891981;28;20182;-81
2020/12/17 11:13:43;;;;;;;;;;;6.60;99.90;;;;;;4893977;28;20091;-81
2020/12/17 11:16:07;;;;;;;35.28;12.48;;;6.70;99.90;;;;;;4894533;28;19963;-81
2020/12/17 11:18:35;;;;;;;32.70;13.10;;;6.80;99.90;;;;;;4894034;28;20150;-81
2020/12/17 11:21:01;;;;;;;28.75;11.30;;;6.90;99.90;;;;;;4895140;28;20114;-81
2020/12/17 11:23:24;;;;;;;30.90;12.13;;;6.90;99.90;;;;;;4898431;28;20091;-82
2020/12/17 11:25:46;;;;;;;33.38;13.07;;;7.00;99.90;;;;;;4874015;28;20195;-81
2020/12/17 11:28:09;;;;;;;30.40;12.27;;;6.90;99.90;;;;;;4896653;28;20174;-81
2020/12/17 11:30:32;;;;;;;27.75;11.18;;;6.80;99.90;;;;;;4892938;28;20098;-80
2020/12/17 11:32:58;;;;;;;27.67;11.52;;;6.70;99.90;;;;;;4894561;28;20083;-81
2020/12/17 11:35:22;;;;;;;;;;;6.80;99.90;;;;;;4895016;28;20083;-81
2020/12/17 11:37:50;;;;;;;26.05;10.95;;;;;;;;;;4894113;28;20078;-82
2020/12/17 11:40:16;;;;;;;29.25;11.52;;;6.90;99.90;;;;;;4895127;28;20083;-80
2020/12/17 11:42:38;;;;;;;;;;;6.90;99.90;;;;;;4886964;28;20185;-81
2020/12/17 11:45:06;;;;;;;27.52;11.73;;;7.00;99.90;;;;;;4907497;28;19971;-81
2020/12/17 11:47:32;;;;;;;28.73;10.98;;;7.10;99.90;;;;;;4897314;28;20091;-80
2020/12/17 11:49:55;;;;;;;25.80;11.25;;;7.20;99.90;;;;;;4895519;28;20094;-81
2020/12/17 11:52:20;;;;;;;27.08;10.48;;;7.20;99.90;;;;;;4895584;28;20142;-81
2020/12/17 11:54:43;;;;;;;27.43;11.10;;;;;;;;;;4894059;28;20190;-81
2020/12/17 11:57:08;;;;;;;31.38;11.80;;;7.10;99.90;;;;;;4894725;28;20091;-81
2020/12/17 11:59:31;;;;;;;28.52;11.57;;;7.10;99.90;;;;;;4895884;28;20097;-81
2020/12/17 12:01:54;;;;;;;23.73;10.35;;;7.10;99.90;;;;;;4895739;28;20717;-81
2020/12/17 12:04:17;;;;;;;31.25;11.70;;;7.10;99.90;;;;;;4873317;28;20099;-81
2020/12/17 12:06:47;;;;;;;25.60;10.38;;;7.10;99.90;;;;;;4892559;28;20094;-81
2020/12/17 12:09:18;;;;;;;24.90;10.82;;;7.00;99.90;;;;;;4893458;28;20105;-80
2020/12/17 12:11:43;;;;;;;23.48;11.00;;;7.00;99.90;;;;;;4894862;28;20499;-81
2020/12/17 12:14:06;;;;;;;25.13;10.45;;;6.90;99.90;;;;;;4893869;28;20441;-81
2020/12/17 12:16:32;;;;;;;26.10;10.93;;;6.90;99.90;;;;;;4887457;28;20091;-81
2020/12/17 12:18:54;;;;;;;;;;;6.90;99.90;;;;;;4893918;28;20477;-81
2020/12/17 12:21:18;;;;;;;24.27;10.48;;;6.90;99.90;;;;;;4892436;28;20098;-81
2020/12/17 12:23:45;;;;;;;26.70;11.27;;;6.80;99.90;;;;;;4897027;28;20087;-82
2020/12/17 12:26:09;;;;;;;24.65;10.25;;;6.80;99.90;;;;;;4893967;28;20707;-84
2020/12/17 12:28:33;;;;;;;25.25;11.25;;;6.70;99.90;;;;;;4894111;28;20110;-81
2020/12/17 12:30:57;;;;;;;22.70;9.88;;;6.70;99.90;;;;;;4890527;28;20103;-81
2020/12/17 12:33:20;;;;;;;26.65;10.52;;;6.70;99.90;;;;;;4887491;28;20605;-81
2020/12/17 12:35:46;;;;;;;26.20;10.25;;;6.70;99.90;;;;;;4897276;28;20541;-80